createdAt,value
2017-08-30T00:00:45.712Z,18.30
2017-08-30T00:03:13.320Z,18.40
2017-08-30T00:05:40.979Z,18.30
2017-08-30T00:08:09.488Z,18.30
2017-08-30T00:10:37.128Z,18.30
2017-08-30T00:13:04.791Z,18.30
2017-08-30T00:15:32.377Z,18.30
2017-08-30T00:18:02.607Z,18.40
2017-08-30T00:20:33.125Z,18.30
2017-08-30T00:23:01.992Z,18.30
2017-08-30T00:25:41.642Z,18.20
2017-08-30T00:28:09.295Z,18.10
2017-08-30T00:30:36.856Z,18.00
2017-08-30T00:33:04.447Z,18.00
2017-08-30T00:35:32.011Z,18.00
2017-08-30T00:38:00.364Z,17.90
2017-08-30T00:40:27.934Z,17.90
2017-08-30T00:42:55.537Z,17.90
2017-08-30T00:45:23.104Z,17.80
2017-08-30T00:47:50.683Z,17.80
2017-08-30T00:50:18.365Z,17.80
2017-08-30T00:52:46.024Z,17.90
2017-08-30T00:55:13.684Z,17.90
2017-08-30T00:57:41.273Z,17.80
2017-08-30T01:00:09.318Z,17.80
2017-08-30T01:02:36.983Z,17.80
2017-08-30T01:05:04.744Z,17.80
2017-08-30T01:07:32.332Z,17.80
2017-08-30T01:10:00.072Z,17.80
2017-08-30T01:12:27.661Z,17.90
2017-08-30T01:14:56.083Z,17.80
2017-08-30T01:17:24.024Z,17.80
2017-08-30T01:19:52.690Z,17.90
2017-08-30T01:22:21.730Z,17.90
2017-08-30T01:24:49.359Z,17.90
2017-08-30T01:27:16.923Z,17.80
2017-08-30T01:29:44.564Z,17.80
2017-08-30T01:32:12.389Z,17.80
2017-08-30T01:34:39.984Z,17.70
2017-08-30T01:37:08.352Z,17.70
2017-08-30T01:39:35.977Z,17.70
2017-08-30T01:42:03.603Z,17.70
2017-08-30T01:44:31.236Z,17.70
2017-08-30T01:46:58.901Z,17.70
2017-08-30T01:49:26.490Z,17.80
2017-08-30T01:51:54.121Z,17.80
2017-08-30T01:54:22.482Z,17.80
2017-08-30T01:56:50.172Z,17.80
2017-08-30T01:59:17.763Z,17.80
2017-08-30T02:01:45.327Z,17.80
2017-08-30T02:04:13.731Z,17.80
2017-08-30T02:06:41.298Z,17.80
2017-08-30T02:09:09.380Z,17.80
2017-08-30T02:11:37.060Z,17.80
2017-08-30T02:14:04.724Z,17.80
2017-08-30T02:16:32.284Z,17.80
2017-08-30T02:18:59.944Z,17.80
2017-08-30T02:21:27.611Z,17.70
2017-08-30T02:23:55.267Z,17.50
2017-08-30T02:26:22.932Z,17.40
2017-08-30T02:28:50.600Z,17.30
2017-08-30T02:31:18.544Z,17.30
2017-08-30T02:33:46.158Z,17.30
2017-08-30T02:36:13.789Z,17.30
2017-08-30T02:38:41.360Z,17.30
2017-08-30T02:41:09.007Z,17.30
2017-08-30T02:43:36.671Z,17.30
2017-08-30T02:46:04.339Z,17.30
2017-08-30T02:48:31.904Z,17.40
2017-08-30T02:50:59.658Z,17.40
2017-08-30T02:53:27.321Z,17.40
2017-08-30T02:55:54.980Z,17.40
2017-08-30T02:58:22.628Z,17.40
2017-08-30T03:00:50.240Z,17.40
2017-08-30T03:03:17.871Z,17.50
2017-08-30T03:05:45.465Z,17.50
2017-08-30T03:08:13.034Z,17.50
2017-08-30T03:10:40.705Z,17.40
2017-08-30T03:13:08.268Z,17.30
2017-08-30T03:15:35.856Z,17.30
2017-08-30T03:18:03.440Z,17.30
2017-08-30T03:20:31.096Z,17.20
2017-08-30T03:22:58.660Z,17.20
2017-08-30T03:25:26.255Z,17.10
2017-08-30T03:27:53.880Z,17.10
2017-08-30T03:30:21.484Z,17.00
2017-08-30T03:32:49.392Z,17.00
2017-08-30T03:35:16.972Z,16.90
2017-08-30T03:37:44.732Z,16.90
2017-08-30T03:40:12.371Z,16.90
2017-08-30T03:42:40.056Z,16.90
2017-08-30T03:45:07.724Z,17.00
2017-08-30T03:47:35.489Z,17.00
2017-08-30T03:50:03.064Z,16.90
2017-08-30T03:52:33.854Z,16.90
2017-08-30T03:55:07.348Z,16.80
2017-08-30T03:57:36.424Z,16.80
2017-08-30T04:00:04.036Z,16.80
2017-08-30T04:02:32.886Z,16.70
2017-08-30T04:05:03.692Z,16.70
2017-08-30T04:07:31.615Z,16.70
2017-08-30T04:09:59.272Z,16.70
2017-08-30T04:12:26.980Z,16.70
2017-08-30T04:14:54.809Z,16.70
2017-08-30T04:17:22.683Z,16.70
2017-08-30T04:19:51.496Z,16.70
2017-08-30T04:22:19.139Z,16.70
2017-08-30T04:24:46.807Z,16.70
2017-08-30T04:27:14.468Z,16.70
2017-08-30T04:29:42.231Z,16.60
2017-08-30T04:32:09.896Z,16.60
2017-08-30T04:34:37.488Z,16.60
2017-08-30T04:37:05.120Z,16.60
2017-08-30T04:39:32.713Z,16.60
2017-08-30T04:42:01.063Z,16.60
2017-08-30T04:44:29.014Z,16.60
2017-08-30T04:46:57.084Z,16.60
2017-08-30T04:49:24.761Z,16.60
2017-08-30T04:51:52.333Z,16.70
2017-08-30T04:54:19.924Z,16.70
2017-08-30T04:56:47.544Z,16.90
2017-08-30T04:59:19.674Z,17.00
2017-08-30T05:01:48.508Z,17.10
2017-08-30T05:04:16.807Z,17.10
2017-08-30T05:06:44.424Z,17.20
2017-08-30T05:09:12.108Z,17.40
2017-08-30T05:11:39.771Z,17.50
2017-08-30T05:14:07.427Z,17.60
2017-08-30T05:16:35.091Z,17.80
2017-08-30T05:19:02.752Z,17.80
2017-08-30T05:21:30.424Z,18.00
2017-08-30T05:23:57.997Z,18.10
2017-08-30T05:26:26.442Z,18.30
2017-08-30T05:28:54.020Z,18.30
2017-08-30T05:31:21.920Z,18.50
2017-08-30T05:33:49.488Z,18.60
2017-08-30T05:36:17.107Z,18.80
2017-08-30T05:38:44.673Z,19.00
2017-08-30T05:41:12.339Z,19.20
2017-08-30T05:43:39.992Z,19.50
2017-08-30T05:46:07.584Z,19.60
2017-08-30T05:48:35.152Z,19.80
2017-08-30T05:51:02.783Z,20.10
2017-08-30T05:53:30.441Z,20.50
2017-08-30T05:55:58.031Z,20.80
2017-08-30T05:58:26.380Z,21.20
2017-08-30T06:00:54.075Z,21.70
2017-08-30T06:03:21.643Z,22.00
2017-08-30T06:05:49.264Z,22.40
2017-08-30T06:08:16.892Z,22.80
2017-08-30T06:10:44.480Z,23.20
2017-08-30T06:13:12.048Z,23.70
2017-08-30T06:15:39.840Z,24.00
2017-08-30T06:18:08.188Z,24.50
2017-08-30T06:20:36.556Z,24.80
2017-08-30T06:23:04.132Z,24.70
2017-08-30T06:25:32.129Z,25.10
2017-08-30T06:28:00.536Z,26.00
2017-08-30T06:30:28.139Z,25.90
2017-08-30T06:32:55.809Z,26.30
2017-08-30T06:35:23.464Z,26.10
2017-08-30T06:37:51.131Z,26.00
2017-08-30T06:40:18.804Z,25.90
2017-08-30T06:42:46.462Z,26.10
2017-08-30T06:45:14.119Z,26.20
2017-08-30T06:47:41.708Z,26.20
2017-08-30T06:50:09.386Z,26.50
2017-08-30T06:52:37.060Z,26.90
2017-08-30T06:55:04.625Z,27.30
2017-08-30T06:57:32.227Z,27.50
2017-08-30T06:59:59.884Z,27.70
2017-08-30T07:02:27.552Z,27.90
2017-08-30T07:04:55.117Z,28.00
2017-08-30T07:07:22.704Z,28.20
2017-08-30T07:09:50.268Z,28.60
2017-08-30T07:12:17.856Z,28.90
2017-08-30T07:14:45.456Z,29.00
2017-08-30T07:17:13.220Z,29.60
2017-08-30T07:19:40.809Z,29.50
2017-08-30T07:22:09.163Z,30.30
2017-08-30T07:24:36.826Z,30.20
2017-08-30T07:27:04.480Z,31.00
2017-08-30T07:29:32.064Z,31.40
2017-08-30T07:31:59.633Z,31.60
2017-08-30T07:34:27.264Z,31.90
2017-08-30T07:36:55.036Z,32.50
2017-08-30T07:39:22.693Z,32.40
2017-08-30T07:41:50.357Z,32.60
2017-08-30T07:44:18.011Z,33.20
2017-08-30T07:46:45.680Z,33.40
2017-08-30T07:49:13.376Z,33.50
2017-08-30T07:51:41.004Z,33.60
2017-08-30T07:54:08.668Z,33.70
2017-08-30T07:56:36.332Z,33.20
2017-08-30T07:59:03.924Z,33.30
2017-08-30T08:01:31.551Z,33.30
2017-08-30T08:03:59.216Z,33.40
2017-08-30T08:06:26.777Z,33.50
2017-08-30T08:08:54.360Z,33.30
2017-08-30T08:11:22.707Z,33.30
2017-08-30T08:13:50.404Z,33.40
2017-08-30T08:16:18.740Z,33.50
2017-08-30T08:18:46.419Z,33.50
2017-08-30T08:21:14.075Z,33.70
2017-08-30T08:23:41.660Z,33.60
2017-08-30T08:26:10.048Z,33.50
2017-08-30T08:28:37.683Z,33.50
2017-08-30T08:31:05.381Z,33.40
2017-08-30T08:33:33.008Z,33.40
2017-08-30T08:36:00.672Z,33.10
2017-08-30T08:38:28.233Z,33.60
2017-08-30T08:40:55.892Z,34.40
2017-08-30T08:43:23.557Z,34.90
2017-08-30T08:45:53.986Z,34.80
2017-08-30T08:48:21.544Z,34.40
2017-08-30T08:50:49.132Z,34.30
2017-08-30T08:53:18.504Z,34.10
2017-08-30T08:55:46.169Z,34.20
2017-08-30T08:58:13.728Z,34.20
2017-08-30T09:00:41.404Z,34.20
2017-08-30T09:03:09.772Z,34.00
2017-08-30T09:05:37.356Z,34.00
2017-08-30T09:08:04.920Z,34.20
2017-08-30T09:10:33.270Z,35.50
2017-08-30T09:13:00.835Z,35.40
2017-08-30T09:15:28.428Z,35.40
2017-08-30T09:17:55.988Z,35.60
2017-08-30T09:20:23.612Z,35.70
2017-08-30T09:22:51.175Z,35.60
2017-08-30T09:25:18.755Z,35.40
2017-08-30T09:27:47.076Z,35.50
2017-08-30T09:30:14.673Z,35.40
2017-08-30T09:32:42.236Z,35.20
2017-08-30T09:35:09.896Z,35.10
2017-08-30T09:37:37.486Z,35.10
2017-08-30T09:40:05.808Z,35.00
2017-08-30T09:42:33.396Z,35.00
2017-08-30T09:45:00.956Z,35.50
2017-08-30T09:47:28.540Z,36.30
2017-08-30T09:49:56.105Z,37.00
2017-08-30T09:52:23.740Z,37.50
2017-08-30T09:54:51.307Z,37.90
2017-08-30T09:57:18.903Z,37.80
2017-08-30T09:59:46.516Z,37.70
2017-08-30T10:02:14.185Z,37.50
2017-08-30T10:04:41.748Z,37.50
2017-08-30T10:07:09.333Z,37.10
2017-08-30T10:09:37.068Z,36.70
2017-08-30T10:12:04.735Z,36.00
2017-08-30T10:14:32.392Z,35.30
2017-08-30T10:17:00.292Z,34.90
2017-08-30T10:19:28.209Z,35.00
2017-08-30T10:21:55.811Z,35.30
2017-08-30T10:24:23.453Z,36.10
2017-08-30T10:26:51.013Z,35.90
2017-08-30T10:29:18.676Z,35.80
2017-08-30T10:31:46.237Z,35.70
2017-08-30T10:34:13.825Z,35.30
2017-08-30T10:36:41.431Z,35.20
2017-08-30T10:39:09.007Z,34.70
2017-08-30T10:41:36.568Z,34.60
2017-08-30T10:44:04.236Z,34.30
2017-08-30T10:46:31.800Z,34.70
2017-08-30T10:48:59.460Z,35.50
2017-08-30T10:51:27.024Z,36.40
2017-08-30T10:53:54.621Z,37.00
2017-08-30T10:56:22.184Z,37.60
2017-08-30T10:58:49.776Z,38.70
2017-08-30T11:01:17.340Z,38.30
2017-08-30T11:03:44.972Z,37.70
2017-08-30T11:06:12.580Z,37.40
2017-08-30T11:08:40.243Z,37.20
2017-08-30T11:11:07.804Z,36.10
2017-08-30T11:13:35.409Z,36.10
2017-08-30T11:16:02.973Z,35.60
2017-08-30T11:18:30.588Z,35.90
2017-08-30T11:20:58.252Z,36.20
2017-08-30T11:23:25.808Z,36.80
2017-08-30T11:25:53.475Z,37.30
2017-08-30T11:28:21.137Z,37.30
2017-08-30T11:30:48.730Z,36.60
2017-08-30T11:33:16.291Z,35.50
2017-08-30T11:35:44.720Z,34.60
2017-08-30T11:38:12.285Z,35.40
2017-08-30T11:40:39.960Z,36.00
2017-08-30T11:43:07.524Z,35.50
2017-08-30T11:45:35.189Z,35.00
2017-08-30T11:48:02.768Z,35.40
2017-08-30T11:50:30.361Z,36.30
2017-08-30T11:52:57.977Z,36.70
2017-08-30T11:55:26.568Z,36.70
2017-08-30T11:57:54.208Z,36.30
2017-08-30T12:00:21.879Z,35.70
2017-08-30T12:02:49.540Z,35.60
2017-08-30T12:05:17.938Z,35.70
2017-08-30T12:07:45.580Z,36.30
2017-08-30T12:10:13.245Z,36.00
2017-08-30T12:12:40.903Z,35.10
2017-08-30T12:15:08.511Z,34.80
2017-08-30T12:17:36.085Z,35.60
2017-08-30T12:20:03.693Z,37.20
2017-08-30T12:22:32.071Z,38.10
2017-08-30T12:24:59.728Z,38.40
2017-08-30T12:27:27.312Z,38.50
2017-08-30T12:29:54.952Z,38.90
2017-08-30T12:32:22.535Z,39.40
2017-08-30T12:34:50.172Z,39.20
2017-08-30T12:40:20.460Z,38.90
2017-08-30T12:42:48.056Z,39.30
2017-08-30T12:45:15.672Z,39.50
2017-08-30T12:47:45.773Z,37.60
2017-08-30T12:50:13.748Z,37.60
2017-08-30T12:52:44.428Z,36.80
2017-08-30T12:55:11.996Z,36.00
2017-08-30T12:57:39.977Z,35.80
2017-08-30T13:00:07.756Z,36.40
2017-08-30T13:02:35.525Z,37.50
2017-08-30T13:05:03.088Z,38.00
2017-08-30T13:07:30.680Z,38.60
2017-08-30T13:09:58.303Z,39.00
2017-08-30T13:12:25.968Z,38.90
2017-08-30T13:14:53.588Z,38.80
2017-08-30T13:17:22.075Z,38.60
2017-08-30T13:19:49.668Z,38.60
2017-08-30T13:22:17.336Z,38.60
2017-08-30T13:24:45.063Z,38.80
2017-08-30T13:27:12.657Z,39.10
2017-08-30T13:29:40.225Z,39.20
2017-08-30T13:32:07.884Z,39.10
2017-08-30T13:34:35.548Z,39.40
2017-08-30T13:37:03.135Z,39.00
2017-08-30T13:39:30.700Z,38.90
2017-08-30T13:41:58.286Z,38.90
2017-08-30T13:44:25.884Z,38.70
2017-08-30T13:46:53.554Z,38.10
2017-08-30T13:49:21.212Z,37.80
2017-08-30T13:51:49.592Z,38.00
2017-08-30T13:54:17.217Z,38.00
2017-08-30T13:56:44.784Z,38.20
2017-08-30T13:59:12.476Z,38.40
2017-08-30T14:01:40.036Z,38.40
2017-08-30T14:04:07.801Z,38.20
2017-08-30T14:06:35.364Z,37.60
2017-08-30T14:09:02.968Z,37.20
2017-08-30T14:11:30.548Z,37.80
2017-08-30T14:13:58.144Z,38.00
2017-08-30T14:16:25.755Z,38.20
2017-08-30T14:18:53.368Z,38.00
2017-08-30T14:21:20.957Z,38.20
2017-08-30T14:23:48.589Z,38.10
2017-08-30T14:26:16.250Z,37.60
2017-08-30T14:28:43.876Z,37.70
2017-08-30T14:31:11.459Z,37.40
2017-08-30T14:33:39.031Z,36.60
2017-08-30T14:36:06.658Z,36.20
2017-08-30T14:38:34.256Z,35.90
2017-08-30T14:41:01.916Z,36.20
2017-08-30T14:43:30.300Z,36.00
2017-08-30T14:45:57.955Z,36.00
2017-08-30T14:48:25.625Z,35.50
2017-08-30T14:50:53.995Z,35.60
2017-08-30T14:53:21.660Z,35.80
2017-08-30T14:55:49.250Z,35.70
2017-08-30T14:58:16.993Z,35.50
2017-08-30T15:00:44.643Z,35.20
2017-08-30T15:03:12.312Z,35.10
2017-08-30T15:05:40.076Z,34.60
2017-08-30T15:08:07.673Z,34.30
2017-08-30T15:10:35.299Z,33.90
2017-08-30T15:13:02.964Z,33.70
2017-08-30T15:15:30.633Z,33.50
2017-08-30T15:17:58.195Z,33.10
2017-08-30T15:20:25.780Z,32.80
2017-08-30T15:22:53.397Z,32.90
2017-08-30T15:25:21.068Z,32.70
2017-08-30T15:27:48.636Z,32.50
2017-08-30T15:30:16.297Z,32.50
2017-08-30T15:32:43.956Z,32.70
2017-08-30T15:35:11.616Z,33.10
2017-08-30T15:37:39.252Z,33.60
2017-08-30T15:40:06.905Z,33.80
2017-08-30T15:42:34.497Z,34.10
2017-08-30T15:45:02.167Z,33.90
2017-08-30T15:47:29.780Z,33.60
2017-08-30T15:49:57.344Z,32.70
2017-08-30T15:52:24.947Z,32.10
2017-08-30T15:54:52.797Z,31.70
2017-08-30T15:57:20.376Z,31.70
2017-08-30T15:59:48.036Z,31.80
2017-08-30T16:02:15.603Z,32.00
2017-08-30T16:04:43.464Z,32.10
2017-08-30T16:07:11.026Z,32.10
2017-08-30T16:09:38.684Z,32.20
2017-08-30T16:12:06.381Z,32.20
2017-08-30T16:14:33.973Z,32.10
2017-08-30T16:17:01.545Z,31.60
2017-08-30T16:19:29.231Z,31.10
2017-08-30T16:21:56.895Z,30.50
2017-08-30T16:24:24.561Z,30.30
2017-08-30T16:26:52.225Z,30.30
2017-08-30T16:29:20.079Z,30.20
2017-08-30T16:31:47.676Z,30.30
2017-08-30T16:34:16.129Z,30.20
2017-08-30T16:36:43.687Z,30.20
2017-08-30T16:39:11.248Z,30.00
2017-08-30T16:41:38.913Z,29.90
2017-08-30T16:44:06.576Z,29.80
2017-08-30T16:46:34.153Z,29.50
2017-08-30T16:49:02.597Z,29.10
2017-08-30T16:51:30.185Z,29.10
2017-08-30T16:53:57.892Z,28.90
2017-08-30T16:56:25.504Z,28.80
2017-08-30T16:58:53.200Z,28.60
2017-08-30T17:01:21.460Z,28.30
2017-08-30T17:03:49.820Z,28.20
2017-08-30T17:06:17.529Z,27.90
2017-08-30T17:08:45.144Z,27.80
2017-08-30T17:11:13.008Z,27.70
2017-08-30T17:13:41.047Z,27.60
2017-08-30T17:16:09.360Z,27.40
2017-08-30T17:18:37.024Z,27.30
2017-08-30T17:21:04.679Z,27.20
2017-08-30T17:23:32.343Z,27.10
2017-08-30T17:25:59.912Z,27.00
2017-08-30T17:28:27.568Z,27.00
2017-08-30T17:30:55.128Z,26.90
2017-08-30T17:33:22.892Z,26.90
2017-08-30T17:35:50.560Z,26.80
2017-08-30T17:38:18.123Z,26.80
2017-08-30T17:40:45.712Z,26.80
2017-08-30T17:43:13.336Z,26.70
2017-08-30T17:45:41.108Z,26.70
2017-08-30T17:48:08.673Z,26.60
2017-08-30T17:50:36.764Z,26.60
2017-08-30T17:53:04.396Z,26.50
2017-08-30T17:55:32.059Z,26.50
2017-08-30T17:57:59.624Z,26.40
2017-08-30T18:00:27.340Z,26.40
2017-08-30T18:02:54.944Z,26.40
2017-08-30T18:05:22.708Z,26.30
2017-08-30T18:07:50.276Z,26.20
2017-08-30T18:10:17.836Z,26.10
2017-08-30T18:12:45.492Z,26.10
2017-08-30T18:15:13.056Z,26.00
2017-08-30T18:17:40.647Z,26.00
2017-08-30T18:20:08.208Z,26.00
2017-08-30T18:22:36.041Z,26.00
2017-08-30T18:25:03.708Z,26.00
2017-08-30T18:27:31.267Z,26.00
2017-08-30T18:29:58.946Z,25.90
2017-08-30T18:32:26.588Z,26.00
2017-08-30T18:34:54.252Z,25.90
2017-08-30T18:37:21.912Z,25.90
2017-08-30T18:39:49.677Z,25.90
2017-08-30T18:42:17.236Z,25.80
2017-08-30T18:44:45.620Z,25.80
2017-08-30T18:47:13.773Z,25.80
2017-08-30T18:49:41.332Z,25.80
2017-08-30T18:52:08.900Z,25.80
2017-08-30T18:54:36.571Z,25.80
2017-08-30T18:57:04.236Z,25.70
2017-08-30T18:59:32.176Z,25.70
2017-08-30T19:01:59.768Z,25.70
2017-08-30T19:04:27.331Z,25.60
2017-08-30T19:06:57.895Z,25.50
2017-08-30T19:09:25.556Z,25.40
2017-08-30T19:11:53.179Z,25.40
2017-08-30T19:14:21.132Z,25.40
2017-08-30T19:16:48.716Z,25.30
2017-08-30T19:19:16.680Z,25.30
2017-08-30T19:21:44.245Z,25.20
2017-08-30T19:24:11.904Z,25.10
2017-08-30T19:26:39.564Z,25.10
2017-08-30T19:29:07.124Z,25.10
2017-08-30T19:31:34.729Z,25.00
2017-08-30T19:34:02.349Z,25.00
2017-08-30T19:36:30.008Z,24.90
2017-08-30T19:38:57.596Z,24.80
2017-08-30T19:41:25.232Z,24.80
2017-08-30T19:43:52.857Z,24.70
2017-08-30T19:46:20.420Z,24.70
2017-08-30T19:48:48.016Z,24.60
2017-08-30T19:51:15.576Z,24.60
2017-08-30T19:53:43.165Z,24.50
2017-08-30T19:56:10.730Z,24.40
2017-08-30T19:58:38.352Z,24.40
2017-08-30T20:01:06.308Z,24.30
2017-08-30T20:03:33.896Z,24.30
2017-08-30T20:06:01.484Z,24.30
2017-08-30T20:08:29.073Z,24.20
2017-08-30T20:10:56.677Z,24.20
2017-08-30T20:13:24.435Z,24.10
2017-08-30T20:15:52.163Z,24.10
2017-08-30T20:18:19.865Z,24.10
2017-08-30T20:20:47.526Z,24.00
2017-08-30T20:23:15.274Z,24.10
2017-08-30T20:25:42.884Z,24.10
2017-08-30T20:28:10.513Z,24.10
2017-08-30T20:30:38.171Z,24.10
2017-08-30T20:33:05.840Z,24.20
2017-08-30T20:35:34.216Z,24.10
2017-08-30T20:38:01.776Z,24.10
2017-08-30T20:40:29.362Z,24.10
2017-08-30T20:42:57.795Z,23.90
2017-08-30T20:45:25.893Z,23.90
2017-08-30T20:47:53.552Z,23.90
2017-08-30T20:50:22.672Z,23.90
2017-08-30T20:52:50.349Z,23.90
2017-08-30T20:55:17.936Z,23.80
2017-08-30T20:57:45.509Z,23.80
2017-08-30T21:00:13.196Z,23.80
2017-08-30T21:02:41.144Z,23.70
2017-08-30T21:05:08.724Z,23.70
2017-08-30T21:07:36.383Z,23.70
2017-08-30T21:10:04.051Z,23.70
2017-08-30T21:12:31.636Z,23.70
2017-08-30T21:14:59.195Z,23.70
2017-08-30T21:17:26.780Z,23.70
2017-08-30T21:19:54.600Z,23.60
2017-08-30T21:22:22.261Z,23.60
2017-08-30T21:24:49.987Z,23.50
2017-08-30T21:27:17.788Z,23.50
2017-08-30T21:29:45.456Z,23.40
2017-08-30T21:32:13.118Z,23.30
2017-08-30T21:34:40.713Z,23.30
2017-08-30T21:37:08.336Z,23.20
2017-08-30T21:39:36.004Z,23.10
2017-08-30T21:42:03.661Z,23.10
2017-08-30T21:44:31.251Z,23.00
2017-08-30T21:46:58.883Z,23.00
2017-08-30T21:49:26.472Z,23.00
2017-08-30T21:51:54.103Z,23.00
2017-08-30T21:54:21.691Z,23.00
2017-08-30T21:56:49.330Z,22.90
2017-08-30T21:59:16.972Z,23.00
2017-08-30T22:01:44.536Z,22.90
2017-08-30T22:04:12.106Z,22.90
2017-08-30T22:06:39.777Z,22.80
2017-08-30T22:09:07.545Z,22.80
2017-08-30T22:11:35.203Z,22.90
2017-08-30T22:14:02.865Z,22.90
2017-08-30T22:16:30.464Z,22.90
2017-08-30T22:18:58.083Z,22.90
2017-08-30T22:21:25.678Z,23.00
2017-08-30T22:23:54.007Z,23.10
2017-08-30T22:26:21.612Z,23.10
2017-08-30T22:28:49.941Z,23.40
2017-08-30T22:31:17.508Z,23.40
2017-08-30T22:33:45.292Z,23.50
2017-08-30T22:36:12.956Z,23.60
2017-08-30T22:38:40.561Z,23.60
2017-08-30T22:41:08.124Z,23.60
2017-08-30T22:43:35.711Z,23.70
2017-08-30T22:46:03.584Z,23.70
2017-08-30T22:48:31.264Z,23.70
2017-08-30T22:50:59.532Z,23.60
2017-08-30T22:53:27.204Z,23.70
2017-08-30T22:55:54.764Z,23.70
2017-08-30T22:58:22.429Z,23.60
2017-08-30T23:00:50.092Z,23.60
2017-08-30T23:03:17.652Z,23.50
2017-08-30T23:05:45.416Z,23.50
2017-08-30T23:08:13.076Z,23.50
2017-08-30T23:10:40.663Z,23.40
2017-08-30T23:13:08.305Z,23.40
2017-08-30T23:15:35.960Z,23.30
2017-08-30T23:18:03.524Z,23.20
2017-08-30T23:20:31.108Z,23.10
2017-08-30T23:22:59.565Z,22.90
2017-08-30T23:25:27.364Z,22.80
2017-08-30T23:27:54.987Z,22.80
2017-08-30T23:30:22.547Z,22.70
2017-08-30T23:32:50.131Z,22.60
2017-08-30T23:35:18.493Z,22.60
2017-08-30T23:37:46.124Z,22.50
2017-08-30T23:40:13.715Z,22.60
2017-08-30T23:42:41.664Z,22.50
2017-08-30T23:45:09.240Z,22.50
2017-08-30T23:47:36.868Z,22.40
2017-08-30T23:50:04.463Z,22.40
2017-08-30T23:52:32.043Z,22.50
2017-08-30T23:54:59.789Z,22.50
2017-08-30T23:57:27.556Z,22.40
2017-08-30T23:59:55.216Z,22.40
